createdAt,value
2018-09-19T00:02:02.871Z,72.24
2018-09-19T00:04:31.498Z,71.90
2018-09-19T00:07:00.299Z,71.79
2018-09-19T00:09:28.925Z,72.63
2018-09-19T00:11:57.501Z,72.54
2018-09-19T00:14:26.037Z,72.44
2018-09-19T00:16:54.732Z,72.69
2018-09-19T00:19:23.409Z,73.33
2018-09-19T00:21:53.496Z,73.51
2018-09-19T00:24:22.139Z,73.46
2018-09-19T00:26:50.700Z,73.11
2018-09-19T00:29:19.332Z,73.00
2018-09-19T00:31:48.188Z,73.57
2018-09-19T00:34:16.837Z,73.46
2018-09-19T00:36:45.392Z,73.48
2018-09-19T00:39:14.155Z,73.20
2018-09-19T00:41:42.821Z,73.20
2018-09-19T00:44:11.396Z,73.37
2018-09-19T00:46:39.955Z,73.50
2018-09-19T00:49:08.525Z,73.08
2018-09-19T00:51:37.158Z,73.05
2018-09-19T00:54:05.734Z,73.20
2018-09-19T00:56:34.525Z,73.73
2018-09-19T00:59:03.331Z,73.17
2018-09-19T01:01:32.024Z,73.52
2018-09-19T01:04:00.607Z,74.64
2018-09-19T01:06:29.243Z,74.26
2018-09-19T01:08:58.056Z,74.58
2018-09-19T01:11:26.637Z,74.95
2018-09-19T01:13:55.258Z,75.26
2018-09-19T01:16:24.225Z,75.01
2018-09-19T01:18:52.803Z,74.74
2018-09-19T01:21:21.337Z,74.40
2018-09-19T01:23:49.878Z,74.65
2018-09-19T01:26:18.548Z,74.64
2018-09-19T01:28:47.097Z,75.29
2018-09-19T01:31:16.504Z,75.05
2018-09-19T01:33:45.877Z,74.79
2018-09-19T01:36:14.637Z,75.48
2018-09-19T01:38:43.197Z,75.16
2018-09-19T01:41:11.948Z,75.27
2018-09-19T01:43:40.507Z,74.79
2018-09-19T01:46:09.072Z,74.28
2018-09-19T01:48:37.764Z,74.73
2018-09-19T01:51:06.347Z,74.07
2018-09-19T01:53:34.885Z,74.67
2018-09-19T01:56:03.425Z,74.95
2018-09-19T01:58:31.959Z,75.00
2018-09-19T02:01:00.511Z,75.47
2018-09-19T02:03:29.064Z,74.84
2018-09-19T02:05:57.732Z,75.51
2018-09-19T02:08:26.336Z,75.33
2018-09-19T02:10:54.875Z,75.29
2018-09-19T02:13:23.412Z,75.41
2018-09-19T02:15:52.008Z,75.49
2018-09-19T02:18:20.543Z,75.38
2018-09-19T02:20:49.131Z,75.94
2018-09-19T02:23:17.846Z,76.68
2018-09-19T02:25:46.395Z,77.16
2018-09-19T02:28:15.025Z,76.49
2018-09-19T02:30:43.550Z,75.79
2018-09-19T02:33:12.115Z,75.98
2018-09-19T02:35:40.720Z,75.65
2018-09-19T02:38:09.284Z,75.73
2018-09-19T02:40:37.884Z,76.19
2018-09-19T02:43:06.454Z,76.17
2018-09-19T02:45:35.002Z,76.60
2018-09-19T02:48:03.665Z,76.68
2018-09-19T02:50:32.249Z,76.22
2018-09-19T02:53:00.793Z,76.46
2018-09-19T02:55:29.341Z,75.82
2018-09-19T02:57:57.952Z,76.30
2018-09-19T03:00:26.506Z,76.10
2018-09-19T03:02:55.049Z,77.07
2018-09-19T03:05:23.598Z,76.67
2018-09-19T03:07:52.190Z,76.36
2018-09-19T03:10:20.742Z,76.31
2018-09-19T03:12:49.329Z,76.08
2018-09-19T03:15:20.199Z,76.79
2018-09-19T03:17:48.930Z,76.47
2018-09-19T03:20:17.413Z,76.54
2018-09-19T03:22:45.985Z,76.49
2018-09-19T03:25:14.669Z,77.15
2018-09-19T03:27:43.217Z,77.08
2018-09-19T03:30:11.781Z,77.22
2018-09-19T03:32:40.324Z,77.08
2018-09-19T03:35:08.908Z,76.39
2018-09-19T03:37:37.564Z,76.57
2018-09-19T03:40:06.278Z,76.78
2018-09-19T03:42:34.828Z,76.55
2018-09-19T03:45:03.418Z,76.72
2018-09-19T03:47:31.965Z,77.46
2018-09-19T03:50:00.591Z,77.56
2018-09-19T03:52:29.182Z,77.83
2018-09-19T03:54:57.728Z,77.82
2018-09-19T03:57:26.331Z,78.14
2018-09-19T03:59:55.684Z,78.34
2018-09-19T04:02:24.296Z,77.78
2018-09-19T04:04:52.847Z,78.60
2018-09-19T04:07:21.379Z,78.83
2018-09-19T04:09:49.936Z,78.37
2018-09-19T04:12:18.560Z,78.49
2018-09-19T04:14:47.186Z,78.48
2018-09-19T04:17:15.791Z,78.30
2018-09-19T04:19:44.332Z,78.66
2018-09-19T04:22:12.875Z,78.58
2018-09-19T04:24:41.576Z,78.41
2018-09-19T04:27:10.144Z,78.74
2018-09-19T04:29:38.684Z,78.96
2018-09-19T04:32:07.352Z,78.40
2018-09-19T04:34:35.915Z,78.47
2018-09-19T04:37:05.381Z,78.72
2018-09-19T04:39:33.979Z,78.68
2018-09-19T04:42:02.585Z,78.32
2018-09-19T04:44:31.153Z,78.24
2018-09-19T04:49:50.162Z,78.33
2018-09-19T04:52:18.929Z,78.92
2018-09-19T04:54:47.693Z,78.49
2018-09-19T04:57:16.355Z,78.93
2018-09-19T04:59:44.920Z,78.80
2018-09-19T05:02:13.457Z,78.87
2018-09-19T05:04:41.989Z,78.35
2018-09-19T05:12:51.852Z,77.66
2018-09-19T05:15:20.408Z,77.88
2018-09-19T05:17:48.941Z,77.62
2018-09-19T05:20:17.529Z,76.91
2018-09-19T05:22:46.154Z,77.23
2018-09-19T05:25:14.845Z,77.16
2018-09-19T05:27:43.401Z,77.13
2018-09-19T05:30:12.772Z,76.87
2018-09-19T05:32:42.142Z,76.46
2018-09-19T05:35:10.832Z,76.79
2018-09-19T05:37:39.389Z,76.09
2018-09-19T05:40:07.959Z,76.25
2018-09-19T05:42:36.501Z,76.41
2018-09-19T05:45:05.339Z,75.88
2018-09-19T05:47:33.887Z,76.42
2018-09-19T05:50:02.484Z,76.36
2018-09-19T05:52:31.033Z,76.16
2018-09-19T05:54:59.593Z,76.21
2018-09-19T05:57:28.539Z,76.26
2018-09-19T05:59:57.116Z,75.94
2018-09-19T06:02:25.647Z,75.44
2018-09-19T06:04:54.289Z,75.40
2018-09-19T06:07:22.773Z,75.18
2018-09-19T06:09:51.411Z,75.11
2018-09-19T06:12:20.006Z,74.80
2018-09-19T06:14:48.597Z,75.13
2018-09-19T06:17:18.205Z,75.30
2018-09-19T06:19:46.772Z,75.28
2018-09-19T06:22:15.358Z,74.95
2018-09-19T06:24:43.932Z,74.72
2018-09-19T06:27:13.656Z,73.85
2018-09-19T06:29:42.210Z,73.48
2018-09-19T06:32:10.789Z,73.69
2018-09-19T06:34:39.526Z,73.78
2018-09-19T06:37:08.137Z,73.61
2018-09-19T06:39:36.790Z,73.50
2018-09-19T06:42:05.328Z,73.45
2018-09-19T06:44:33.923Z,73.95
2018-09-19T06:47:02.530Z,73.51
2018-09-19T06:49:31.217Z,72.70
2018-09-19T06:51:59.877Z,72.93
2018-09-19T06:54:28.555Z,71.70
2018-09-19T06:56:57.180Z,71.85
2018-09-19T06:59:25.826Z,71.47
2018-09-19T07:01:54.415Z,70.05
2018-09-19T07:04:22.972Z,69.68
2018-09-19T07:06:52.685Z,69.41
2018-09-19T07:09:21.228Z,69.10
2018-09-19T07:11:49.790Z,68.67
2018-09-19T07:14:18.381Z,68.81
2018-09-19T07:16:46.948Z,68.56
2018-09-19T07:22:17.974Z,67.28
2018-09-19T07:24:46.548Z,67.36
2018-09-19T07:27:15.139Z,67.22
2018-09-19T07:29:43.689Z,67.14
2018-09-19T07:32:12.266Z,66.90
2018-09-19T07:34:40.875Z,66.56
2018-09-19T07:37:09.462Z,67.66
2018-09-19T07:39:38.028Z,67.35
2018-09-19T07:42:06.640Z,66.73
2018-09-19T07:44:35.188Z,66.95
2018-09-19T07:47:03.785Z,66.72
2018-09-19T07:49:32.330Z,67.04
2018-09-19T07:52:00.899Z,66.74
2018-09-19T07:54:29.508Z,66.31
2018-09-19T07:56:58.014Z,66.10
2018-09-19T07:59:26.767Z,66.32
2018-09-19T08:01:55.299Z,66.24
2018-09-19T08:04:23.950Z,65.76
2018-09-19T08:06:52.524Z,66.71
2018-09-19T08:09:21.174Z,67.12
2018-09-19T08:11:49.727Z,66.95
2018-09-19T08:14:18.261Z,66.78
2018-09-19T08:16:46.852Z,67.07
2018-09-19T08:19:15.456Z,67.44
2018-09-19T08:21:44.020Z,66.70
2018-09-19T08:24:12.546Z,66.13
2018-09-19T08:26:41.084Z,66.11
2018-09-19T08:29:09.726Z,66.41
2018-09-19T08:31:38.318Z,65.94
2018-09-19T08:34:06.881Z,65.56
2018-09-19T08:36:35.436Z,65.44
2018-09-19T08:39:06.170Z,65.81
2018-09-19T08:41:34.818Z,65.92
2018-09-19T08:44:03.377Z,66.22
2018-09-19T08:46:32.008Z,66.25
2018-09-19T08:49:00.559Z,66.71
2018-09-19T08:51:29.103Z,65.97
2018-09-19T08:53:57.652Z,65.84
2018-09-19T08:56:26.204Z,65.49
2018-09-19T08:58:55.163Z,65.25
2018-09-19T09:01:23.712Z,64.90
2018-09-19T09:03:52.293Z,65.32
2018-09-19T09:06:20.821Z,65.72
2018-09-19T09:08:49.360Z,65.61
2018-09-19T09:11:18.075Z,65.50
2018-09-19T09:13:46.690Z,65.00
2018-09-19T09:16:15.302Z,65.08
2018-09-19T09:18:43.973Z,64.49
2018-09-19T09:21:12.639Z,63.96
2018-09-19T09:23:42.106Z,64.29
2018-09-19T09:26:13.995Z,63.54
2018-09-19T09:28:42.507Z,63.92
2018-09-19T09:31:11.374Z,62.10
2018-09-19T09:33:39.941Z,62.45
2018-09-19T09:36:08.513Z,62.48
2018-09-19T09:38:37.081Z,62.02
2018-09-19T09:41:05.771Z,61.18
2018-09-19T09:43:34.373Z,59.93
2018-09-19T09:46:02.947Z,58.58
2018-09-19T09:48:31.541Z,57.54
2018-09-19T09:51:00.166Z,56.90
2018-09-19T09:53:28.893Z,55.78
2018-09-19T09:55:57.691Z,55.01
2018-09-19T09:58:26.272Z,54.17
2018-09-19T10:00:55.127Z,52.25
2018-09-19T10:03:23.639Z,50.12
2018-09-19T10:05:52.192Z,49.34
2018-09-19T10:08:20.748Z,48.61
2018-09-19T10:10:49.663Z,47.19
2018-09-19T10:13:18.326Z,45.89
2018-09-19T10:15:46.864Z,45.55
2018-09-19T10:18:15.392Z,44.46
2018-09-19T10:20:43.990Z,43.89
2018-09-19T10:23:12.633Z,42.38
2018-09-19T10:25:41.408Z,40.99
2018-09-19T10:28:09.929Z,42.00
2018-09-19T10:30:38.502Z,39.87
2018-09-19T10:33:07.333Z,40.93
2018-09-19T10:35:36.016Z,40.35
2018-09-19T10:38:04.588Z,39.11
2018-09-19T10:40:33.160Z,39.02
2018-09-19T10:43:01.728Z,37.84
2018-09-19T10:45:30.331Z,38.47
2018-09-19T10:47:58.864Z,37.60
2018-09-19T10:50:27.490Z,35.68
2018-09-19T10:52:56.047Z,37.36
2018-09-19T10:55:25.321Z,36.87
2018-09-19T10:57:53.890Z,35.95
2018-09-19T11:00:22.465Z,36.52
2018-09-19T11:02:51.030Z,35.81
2018-09-19T11:05:19.781Z,36.24
2018-09-19T11:07:48.352Z,37.60
2018-09-19T11:10:16.898Z,37.74
2018-09-19T11:12:45.476Z,39.39
2018-09-19T11:15:14.190Z,39.93
2018-09-19T11:17:42.798Z,41.79
2018-09-19T11:20:11.355Z,42.33
2018-09-19T11:22:39.926Z,43.40
2018-09-19T11:25:08.532Z,44.33
2018-09-19T11:27:37.082Z,44.19
2018-09-19T11:30:06.192Z,44.45
2018-09-19T11:32:34.787Z,45.15
2018-09-19T11:35:03.437Z,44.93
2018-09-19T11:37:32.150Z,44.77
2018-09-19T11:40:00.712Z,43.83
2018-09-19T11:45:19.988Z,45.28
2018-09-19T11:47:48.516Z,44.52
2018-09-19T11:50:17.100Z,43.35
2018-09-19T11:52:45.658Z,44.90
2018-09-19T11:55:15.381Z,45.37
2018-09-19T11:57:44.106Z,46.45
2018-09-19T12:00:13.061Z,45.86
2018-09-19T12:02:41.668Z,46.04
2018-09-19T12:05:11.061Z,45.01
2018-09-19T12:07:39.928Z,44.98
2018-09-19T12:10:08.607Z,44.87
2018-09-19T12:12:38.090Z,44.16
2018-09-19T12:15:06.997Z,43.50
2018-09-19T12:17:35.841Z,42.91
2018-09-19T12:20:04.512Z,42.79
2018-09-19T12:22:33.265Z,42.28
2018-09-19T12:25:01.845Z,43.15
2018-09-19T12:27:30.392Z,43.66
2018-09-19T12:29:58.976Z,42.80
2018-09-19T12:32:27.947Z,42.64
2018-09-19T12:34:56.556Z,42.25
2018-09-19T12:37:25.322Z,42.60
2018-09-19T12:39:53.924Z,42.83
2018-09-19T12:42:22.472Z,42.08
2018-09-19T12:44:51.000Z,42.14
2018-09-19T12:47:19.998Z,42.02
2018-09-19T12:49:48.903Z,41.34
2018-09-19T12:52:17.440Z,41.51
2018-09-19T12:54:46.023Z,41.33
2018-09-19T12:57:14.751Z,41.51
2018-09-19T12:59:43.336Z,39.36
2018-09-19T13:02:11.938Z,40.77
2018-09-19T13:04:40.473Z,40.72
2018-09-19T13:07:09.083Z,38.51
2018-09-19T13:09:37.738Z,39.23
2018-09-19T13:12:06.315Z,39.02
2018-09-19T13:14:34.884Z,39.02
2018-09-19T13:17:03.480Z,39.04
2018-09-19T13:19:32.080Z,38.32
2018-09-19T13:22:00.657Z,37.45
2018-09-19T13:24:29.180Z,36.86
2018-09-19T13:26:57.750Z,36.23
2018-09-19T13:29:26.412Z,36.46
2018-09-19T13:31:55.258Z,37.84
2018-09-19T13:34:23.873Z,38.72
2018-09-19T13:36:52.508Z,38.47
2018-09-19T13:39:21.080Z,39.03
2018-09-19T13:41:49.648Z,38.73
2018-09-19T13:44:18.420Z,37.05
2018-09-19T13:46:47.028Z,38.61
2018-09-19T13:49:34.502Z,38.24
2018-09-19T13:52:03.061Z,40.17
2018-09-19T13:54:31.645Z,38.84
2018-09-19T13:57:00.255Z,39.60
2018-09-19T13:59:28.844Z,40.18
2018-09-19T14:01:58.404Z,39.91
2018-09-19T14:04:27.011Z,39.86
2018-09-19T14:06:55.731Z,39.91
2018-09-19T14:09:24.301Z,41.49
2018-09-19T14:11:52.978Z,41.44
2018-09-19T14:14:21.549Z,41.47
2018-09-19T14:16:50.311Z,41.20
2018-09-19T14:19:19.024Z,42.72
2018-09-19T14:21:47.795Z,42.03
2018-09-19T14:24:16.756Z,42.44
2018-09-19T14:26:45.499Z,42.32
2018-09-19T14:29:14.143Z,42.43
2018-09-19T14:31:42.747Z,42.22
2018-09-19T14:34:11.377Z,42.16
2018-09-19T14:36:39.937Z,42.40
2018-09-19T14:39:08.957Z,42.49
2018-09-19T14:41:37.591Z,43.06
2018-09-19T14:44:06.221Z,41.84
2018-09-19T14:46:34.790Z,43.24
2018-09-19T14:49:03.538Z,41.18
2018-09-19T14:51:32.113Z,41.78
2018-09-19T14:54:00.760Z,40.60
2018-09-19T14:56:29.615Z,40.09
2018-09-19T14:58:58.157Z,41.77
2018-09-19T15:01:26.721Z,42.22
2018-09-19T15:03:55.316Z,41.80
2018-09-19T15:06:23.918Z,42.06
2018-09-19T15:08:52.497Z,41.72
2018-09-19T15:11:21.140Z,41.11
2018-09-19T15:13:49.724Z,41.35
2018-09-19T15:16:18.329Z,42.65
2018-09-19T15:18:46.986Z,42.60
2018-09-19T15:21:15.629Z,42.27
2018-09-19T15:23:44.229Z,41.43
2018-09-19T15:26:12.860Z,41.21
2018-09-19T15:28:41.479Z,39.84
2018-09-19T15:31:10.075Z,37.82
2018-09-19T15:33:38.649Z,34.66
2018-09-19T15:36:07.348Z,33.28
2018-09-19T15:38:36.028Z,29.67
2018-09-19T15:41:04.644Z,28.63
2018-09-19T15:43:33.203Z,28.44
2018-09-19T15:46:01.812Z,28.13
2018-09-19T15:48:30.352Z,28.91
2018-09-19T15:50:58.960Z,27.86
2018-09-19T15:53:30.931Z,28.30
2018-09-19T15:56:00.549Z,31.51
2018-09-19T15:58:29.108Z,31.64
2018-09-19T16:00:57.646Z,31.00
2018-09-19T16:03:27.796Z,30.85
2018-09-19T16:05:56.559Z,31.00
2018-09-19T16:08:25.136Z,30.31
2018-09-19T16:10:53.855Z,29.94
2018-09-19T16:13:22.527Z,31.50
2018-09-19T16:15:51.104Z,33.99
